sensor_id;sensor_type;location;lat;lon;timestamp;temperature;humidity
46458;DHT22;32155;54.076;12.092;2023-06-10T00:01:58;13.40;99.90
46458;DHT22;32155;54.076;12.092;2023-06-10T00:04:26;13.30;99.90
46458;DHT22;32155;54.076;12.092;2023-06-10T00:06:52;13.30;99.90
46458;DHT22;32155;54.076;12.092;2023-06-10T00:09:19;13.30;99.90
46458;DHT22;32155;54.076;12.092;2023-06-10T00:11:46;13.30;99.90
46458;DHT22;32155;54.076;12.092;2023-06-10T00:14:12;13.40;99.90
46458;DHT22;32155;54.076;12.092;2023-06-10T00:16:38;13.40;99.90
46458;DHT22;32155;54.076;12.092;2023-06-10T00:19:04;13.30;99.90
46458;DHT22;32155;54.076;12.092;2023-06-10T00:21:30;13.30;99.90
46458;DHT22;32155;54.076;12.092;2023-06-10T00:24:08;13.30;99.90
46458;DHT22;32155;54.076;12.092;2023-06-10T00:26:40;13.30;99.90
46458;DHT22;32155;54.076;12.092;2023-06-10T00:29:09;13.30;99.90
46458;DHT22;32155;54.076;12.092;2023-06-10T00:31:35;13.20;99.90
46458;DHT22;32155;54.076;12.092;2023-06-10T00:34:01;13.30;99.90
46458;DHT22;32155;54.076;12.092;2023-06-10T00:36:27;13.20;99.90
46458;DHT22;32155;54.076;12.092;2023-06-10T00:38:53;13.30;99.90
46458;DHT22;32155;54.076;12.092;2023-06-10T00:41:19;13.30;99.90
46458;DHT22;32155;54.076;12.092;2023-06-10T00:43:44;13.30;99.90
46458;DHT22;32155;54.076;12.092;2023-06-10T00:46:12;13.30;99.90
46458;DHT22;32155;54.076;12.092;2023-06-10T00:48:42;13.30;99.90
46458;DHT22;32155;54.076;12.092;2023-06-10T00:51:10;13.30;99.90
46458;DHT22;32155;54.076;12.092;2023-06-10T00:53:39;13.40;99.90
46458;DHT22;32155;54.076;12.092;2023-06-10T00:56:05;13.30;99.90
46458;DHT22;32155;54.076;12.092;2023-06-10T00:58:31;13.30;99.90
46458;DHT22;32155;54.076;12.092;2023-06-10T01:00:56;13.20;99.90
46458;DHT22;32155;54.076;12.092;2023-06-10T01:03:23;13.30;99.90
46458;DHT22;32155;54.076;12.092;2023-06-10T01:05:53;13.30;99.90
46458;DHT22;32155;54.076;12.092;2023-06-10T01:10:57;13.30;99.90
46458;DHT22;32155;54.076;12.092;2023-06-10T01:13:24;13.30;99.90
46458;DHT22;32155;54.076;12.092;2023-06-10T01:15:59;13.30;99.90
46458;DHT22;32155;54.076;12.092;2023-06-10T01:18:32;13.30;99.90
46458;DHT22;32155;54.076;12.092;2023-06-10T01:20:57;13.30;99.90
46458;DHT22;32155;54.076;12.092;2023-06-10T01:23:23;13.30;99.90
46458;DHT22;32155;54.076;12.092;2023-06-10T01:25:57;13.30;99.90
46458;DHT22;32155;54.076;12.092;2023-06-10T01:33:21;13.30;99.90
46458;DHT22;32155;54.076;12.092;2023-06-10T01:35:52;13.20;99.90
46458;DHT22;32155;54.076;12.092;2023-06-10T01:38:18;13.30;99.90
46458;DHT22;32155;54.076;12.092;2023-06-10T01:40:44;13.30;99.90
46458;DHT22;32155;54.076;12.092;2023-06-10T01:43:11;13.20;99.90
46458;DHT22;32155;54.076;12.092;2023-06-10T01:45:36;13.20;99.90
46458;DHT22;32155;54.076;12.092;2023-06-10T01:48:02;13.20;99.90
46458;DHT22;32155;54.076;12.092;2023-06-10T01:50:30;13.20;99.90
46458;DHT22;32155;54.076;12.092;2023-06-10T01:52:56;13.20;99.90
46458;DHT22;32155;54.076;12.092;2023-06-10T01:55:24;13.20;99.90
46458;DHT22;32155;54.076;12.092;2023-06-10T01:57:50;13.20;99.90
46458;DHT22;32155;54.076;12.092;2023-06-10T02:00:17;13.20;99.90
46458;DHT22;32155;54.076;12.092;2023-06-10T02:02:42;13.10;99.90
46458;DHT22;32155;54.076;12.092;2023-06-10T02:05:08;13.10;99.90
46458;DHT22;32155;54.076;12.092;2023-06-10T02:07:33;13.10;99.90
46458;DHT22;32155;54.076;12.092;2023-06-10T02:09:59;13.10;99.90
46458;DHT22;32155;54.076;12.092;2023-06-10T02:12:25;13.10;99.90
46458;DHT22;32155;54.076;12.092;2023-06-10T02:14:51;13.10;99.90
46458;DHT22;32155;54.076;12.092;2023-06-10T02:17:18;13.10;99.90
46458;DHT22;32155;54.076;12.092;2023-06-10T02:19:44;13.10;99.90
46458;DHT22;32155;54.076;12.092;2023-06-10T02:22:19;13.10;99.90
46458;DHT22;32155;54.076;12.092;2023-06-10T02:24:45;13.10;99.90
46458;DHT22;32155;54.076;12.092;2023-06-10T02:27:11;13.10;99.90
46458;DHT22;32155;54.076;12.092;2023-06-10T02:29:36;13.10;99.90
46458;DHT22;32155;54.076;12.092;2023-06-10T02:32:05;13.20;99.90
46458;DHT22;32155;54.076;12.092;2023-06-10T02:34:30;13.30;99.90
46458;DHT22;32155;54.076;12.092;2023-06-10T02:36:56;13.20;99.90
46458;DHT22;32155;54.076;12.092;2023-06-10T02:39:24;13.20;99.90
46458;DHT22;32155;54.076;12.092;2023-06-10T02:41:50;13.20;99.90
46458;DHT22;32155;54.076;12.092;2023-06-10T02:44:18;13.20;99.90
46458;DHT22;32155;54.076;12.092;2023-06-10T02:46:43;13.20;99.90
46458;DHT22;32155;54.076;12.092;2023-06-10T02:49:11;13.20;99.90
46458;DHT22;32155;54.076;12.092;2023-06-10T02:51:37;13.10;99.90
46458;DHT22;32155;54.076;12.092;2023-06-10T02:54:03;13.20;99.90
46458;DHT22;32155;54.076;12.092;2023-06-10T02:56:28;13.10;99.90
46458;DHT22;32155;54.076;12.092;2023-06-10T02:58:54;13.20;99.90
46458;DHT22;32155;54.076;12.092;2023-06-10T03:01:20;13.30;99.90
46458;DHT22;32155;54.076;12.092;2023-06-10T03:03:46;13.30;99.90
46458;DHT22;32155;54.076;12.092;2023-06-10T03:06:12;13.30;99.90
46458;DHT22;32155;54.076;12.092;2023-06-10T03:08:38;13.30;99.90
46458;DHT22;32155;54.076;12.092;2023-06-10T03:11:04;13.30;99.90
46458;DHT22;32155;54.076;12.092;2023-06-10T03:13:29;13.30;99.90
46458;DHT22;32155;54.076;12.092;2023-06-10T03:15:55;13.30;99.90
46458;DHT22;32155;54.076;12.092;2023-06-10T03:18:20;13.40;99.90
46458;DHT22;32155;54.076;12.092;2023-06-10T03:20:48;13.40;99.90
46458;DHT22;32155;54.076;12.092;2023-06-10T03:23:13;13.50;99.90
46458;DHT22;32155;54.076;12.092;2023-06-10T03:25:39;13.50;99.90
46458;DHT22;32155;54.076;12.092;2023-06-10T03:28:07;13.50;99.90
46458;DHT22;32155;54.076;12.092;2023-06-10T03:30:32;13.60;99.90
46458;DHT22;32155;54.076;12.092;2023-06-10T03:32:58;13.70;99.90
46458;DHT22;32155;54.076;12.092;2023-06-10T03:35:23;13.70;99.90
46458;DHT22;32155;54.076;12.092;2023-06-10T03:37:49;13.70;99.90
46458;DHT22;32155;54.076;12.092;2023-06-10T03:40:14;13.70;99.90
46458;DHT22;32155;54.076;12.092;2023-06-10T03:42:42;13.80;99.90
46458;DHT22;32155;54.076;12.092;2023-06-10T03:45:09;13.80;99.90
46458;DHT22;32155;54.076;12.092;2023-06-10T03:47:35;13.90;99.90
46458;DHT22;32155;54.076;12.092;2023-06-10T03:50:01;14.00;99.90
46458;DHT22;32155;54.076;12.092;2023-06-10T03:52:27;14.10;99.90
46458;DHT22;32155;54.076;12.092;2023-06-10T03:54:52;14.10;99.90
46458;DHT22;32155;54.076;12.092;2023-06-10T03:57:18;14.10;99.90
46458;DHT22;32155;54.076;12.092;2023-06-10T03:59:46;14.10;99.90
46458;DHT22;32155;54.076;12.092;2023-06-10T04:02:11;14.20;99.90
46458;DHT22;32155;54.076;12.092;2023-06-10T04:04:37;14.30;99.90
46458;DHT22;32155;54.076;12.092;2023-06-10T04:07:03;14.30;99.90
46458;DHT22;32155;54.076;12.092;2023-06-10T04:09:29;14.40;99.90
46458;DHT22;32155;54.076;12.092;2023-06-10T04:11:54;14.30;99.90
46458;DHT22;32155;54.076;12.092;2023-06-10T04:14:22;14.30;99.90
46458;DHT22;32155;54.076;12.092;2023-06-10T04:16:47;14.40;99.90
46458;DHT22;32155;54.076;12.092;2023-06-10T04:19:16;14.50;99.90
46458;DHT22;32155;54.076;12.092;2023-06-10T04:21:42;14.60;99.90
46458;DHT22;32155;54.076;12.092;2023-06-10T04:24:07;14.60;99.90
46458;DHT22;32155;54.076;12.092;2023-06-10T04:26:34;14.70;99.90
46458;DHT22;32155;54.076;12.092;2023-06-10T04:29:03;14.70;99.90
46458;DHT22;32155;54.076;12.092;2023-06-10T04:31:30;14.80;99.90
46458;DHT22;32155;54.076;12.092;2023-06-10T04:33:57;14.90;99.90
46458;DHT22;32155;54.076;12.092;2023-06-10T04:36:26;15.10;99.90
46458;DHT22;32155;54.076;12.092;2023-06-10T04:38:51;15.20;99.90
46458;DHT22;32155;54.076;12.092;2023-06-10T04:41:20;15.20;99.90
46458;DHT22;32155;54.076;12.092;2023-06-10T04:43:45;15.30;99.90
46458;DHT22;32155;54.076;12.092;2023-06-10T04:46:11;15.40;99.90
46458;DHT22;32155;54.076;12.092;2023-06-10T04:48:38;15.40;99.90
46458;DHT22;32155;54.076;12.092;2023-06-10T04:51:07;15.50;99.90
46458;DHT22;32155;54.076;12.092;2023-06-10T04:53:33;15.50;99.90
46458;DHT22;32155;54.076;12.092;2023-06-10T04:55:58;15.60;99.90
46458;DHT22;32155;54.076;12.092;2023-06-10T04:58:24;15.70;99.90
46458;DHT22;32155;54.076;12.092;2023-06-10T05:00:49;15.70;99.90
46458;DHT22;32155;54.076;12.092;2023-06-10T05:03:15;15.80;99.90
46458;DHT22;32155;54.076;12.092;2023-06-10T05:05:43;15.80;99.90
46458;DHT22;32155;54.076;12.092;2023-06-10T05:08:09;15.90;99.90
46458;DHT22;32155;54.076;12.092;2023-06-10T05:10:34;16.10;99.90
46458;DHT22;32155;54.076;12.092;2023-06-10T05:13:00;16.20;99.90
46458;DHT22;32155;54.076;12.092;2023-06-10T05:15:25;16.30;99.90
46458;DHT22;32155;54.076;12.092;2023-06-10T05:17:51;16.30;99.90
46458;DHT22;32155;54.076;12.092;2023-06-10T05:20:19;16.50;99.90
46458;DHT22;32155;54.076;12.092;2023-06-10T05:22:45;16.60;99.90
46458;DHT22;32155;54.076;12.092;2023-06-10T05:25:11;16.70;99.90
46458;DHT22;32155;54.076;12.092;2023-06-10T05:27:37;16.90;99.90
46458;DHT22;32155;54.076;12.092;2023-06-10T05:30:03;16.80;99.90
46458;DHT22;32155;54.076;12.092;2023-06-10T05:32:29;16.90;99.90
46458;DHT22;32155;54.076;12.092;2023-06-10T05:34:57;17.10;99.90
46458;DHT22;32155;54.076;12.092;2023-06-10T05:37:22;17.20;99.90
46458;DHT22;32155;54.076;12.092;2023-06-10T05:39:48;17.50;99.90
46458;DHT22;32155;54.076;12.092;2023-06-10T05:42:13;17.60;99.90
46458;DHT22;32155;54.076;12.092;2023-06-10T05:44:39;17.70;99.90
46458;DHT22;32155;54.076;12.092;2023-06-10T05:47:04;17.90;99.90
46458;DHT22;32155;54.076;12.092;2023-06-10T05:49:30;18.10;99.90
46458;DHT22;32155;54.076;12.092;2023-06-10T05:51:55;18.30;99.90
46458;DHT22;32155;54.076;12.092;2023-06-10T05:54:22;18.60;99.90
46458;DHT22;32155;54.076;12.092;2023-06-10T05:56:48;18.80;99.90
46458;DHT22;32155;54.076;12.092;2023-06-10T05:59:13;19.10;99.90
46458;DHT22;32155;54.076;12.092;2023-06-10T06:01:39;19.30;99.90
46458;DHT22;32155;54.076;12.092;2023-06-10T06:04:04;19.50;99.90
46458;DHT22;32155;54.076;12.092;2023-06-10T06:06:30;19.80;99.90
46458;DHT22;32155;54.076;12.092;2023-06-10T06:08:55;19.50;99.90
46458;DHT22;32155;54.076;12.092;2023-06-10T06:11:21;19.70;99.90
46458;DHT22;32155;54.076;12.092;2023-06-10T06:13:47;20.10;99.90
46458;DHT22;32155;54.076;12.092;2023-06-10T06:16:13;20.10;99.90
46458;DHT22;32155;54.076;12.092;2023-06-10T06:18:41;20.30;99.90
46458;DHT22;32155;54.076;12.092;2023-06-10T06:21:07;20.70;99.90
46458;DHT22;32155;54.076;12.092;2023-06-10T06:23:35;20.80;99.90
46458;DHT22;32155;54.076;12.092;2023-06-10T06:26:00;20.90;99.90
46458;DHT22;32155;54.076;12.092;2023-06-10T06:28:26;21.20;99.90
46458;DHT22;32155;54.076;12.092;2023-06-10T06:30:57;21.20;99.90
46458;DHT22;32155;54.076;12.092;2023-06-10T06:33:23;20.40;99.90
46458;DHT22;32155;54.076;12.092;2023-06-10T06:35:48;20.80;99.90
46458;DHT22;32155;54.076;12.092;2023-06-10T06:38:14;21.20;99.90
46458;DHT22;32155;54.076;12.092;2023-06-10T06:40:42;21.20;99.90
46458;DHT22;32155;54.076;12.092;2023-06-10T06:43:07;21.50;99.90
46458;DHT22;32155;54.076;12.092;2023-06-10T06:45:33;21.50;99.90
46458;DHT22;32155;54.076;12.092;2023-06-10T06:47:59;21.40;99.90
46458;DHT22;32155;54.076;12.092;2023-06-10T06:50:25;21.90;99.90
46458;DHT22;32155;54.076;12.092;2023-06-10T06:52:50;22.30;99.90
46458;DHT22;32155;54.076;12.092;2023-06-10T06:55:16;22.50;99.90
46458;DHT22;32155;54.076;12.092;2023-06-10T06:57:44;22.70;99.90
46458;DHT22;32155;54.076;12.092;2023-06-10T07:00:12;22.70;99.90
46458;DHT22;32155;54.076;12.092;2023-06-10T07:02:37;22.80;99.90
46458;DHT22;32155;54.076;12.092;2023-06-10T07:05:03;23.00;99.90
46458;DHT22;32155;54.076;12.092;2023-06-10T07:07:31;22.60;99.90
46458;DHT22;32155;54.076;12.092;2023-06-10T07:09:57;23.20;99.90
46458;DHT22;32155;54.076;12.092;2023-06-10T07:12:22;23.70;99.90
46458;DHT22;32155;54.076;12.092;2023-06-10T07:14:49;24.60;99.90
46458;DHT22;32155;54.076;12.092;2023-06-10T07:17:15;24.50;99.90
46458;DHT22;32155;54.076;12.092;2023-06-10T07:19:40;24.40;99.90
46458;DHT22;32155;54.076;12.092;2023-06-10T07:22:08;24.70;99.90
46458;DHT22;32155;54.076;12.092;2023-06-10T07:24:34;25.00;99.90
46458;DHT22;32155;54.076;12.092;2023-06-10T07:26:59;25.60;99.90
46458;DHT22;32155;54.076;12.092;2023-06-10T07:29:25;26.00;99.90
46458;DHT22;32155;54.076;12.092;2023-06-10T07:31:53;26.50;99.90
46458;DHT22;32155;54.076;12.092;2023-06-10T07:34:18;26.70;99.90
46458;DHT22;32155;54.076;12.092;2023-06-10T07:36:44;26.80;99.90
46458;DHT22;32155;54.076;12.092;2023-06-10T07:39:10;27.10;99.90
46458;DHT22;32155;54.076;12.092;2023-06-10T07:41:35;27.50;99.90
46458;DHT22;32155;54.076;12.092;2023-06-10T07:44:03;27.50;99.90
46458;DHT22;32155;54.076;12.092;2023-06-10T07:46:29;27.30;99.90
46458;DHT22;32155;54.076;12.092;2023-06-10T07:48:57;28.00;99.90
46458;DHT22;32155;54.076;12.092;2023-06-10T07:51:22;28.00;99.90
46458;DHT22;32155;54.076;12.092;2023-06-10T07:53:48;28.30;99.90
46458;DHT22;32155;54.076;12.092;2023-06-10T07:56:13;27.90;99.90
46458;DHT22;32155;54.076;12.092;2023-06-10T07:58:39;28.60;99.90
46458;DHT22;32155;54.076;12.092;2023-06-10T08:01:04;28.80;99.90
46458;DHT22;32155;54.076;12.092;2023-06-10T08:03:30;29.30;99.90
46458;DHT22;32155;54.076;12.092;2023-06-10T08:05:58;29.80;99.90
46458;DHT22;32155;54.076;12.092;2023-06-10T08:08:23;29.50;99.90
46458;DHT22;32155;54.076;12.092;2023-06-10T08:10:51;29.50;99.90
46458;DHT22;32155;54.076;12.092;2023-06-10T08:13:17;29.00;99.90
46458;DHT22;32155;54.076;12.092;2023-06-10T08:15:42;30.40;99.90
46458;DHT22;32155;54.076;12.092;2023-06-10T08:18:10;30.70;99.90
46458;DHT22;32155;54.076;12.092;2023-06-10T08:20:36;30.30;99.90
46458;DHT22;32155;54.076;12.092;2023-06-10T08:23:03;30.70;99.90
46458;DHT22;32155;54.076;12.092;2023-06-10T08:25:29;30.20;99.90
46458;DHT22;32155;54.076;12.092;2023-06-10T08:27:55;30.10;99.90
46458;DHT22;32155;54.076;12.092;2023-06-10T08:30:21;28.60;99.90
46458;DHT22;32155;54.076;12.092;2023-06-10T08:32:47;29.40;99.90
46458;DHT22;32155;54.076;12.092;2023-06-10T08:35:15;30.60;99.90
46458;DHT22;32155;54.076;12.092;2023-06-10T08:37:43;31.60;99.90
46458;DHT22;32155;54.076;12.092;2023-06-10T08:40:08;33.10;99.90
46458;DHT22;32155;54.076;12.092;2023-06-10T08:42:39;32.30;99.90
46458;DHT22;32155;54.076;12.092;2023-06-10T08:45:07;29.60;99.90
46458;DHT22;32155;54.076;12.092;2023-06-10T08:47:33;30.00;99.90
46458;DHT22;32155;54.076;12.092;2023-06-10T08:50:02;30.50;99.90
46458;DHT22;32155;54.076;12.092;2023-06-10T08:52:36;31.20;99.90
46458;DHT22;32155;54.076;12.092;2023-06-10T08:55:15;32.30;99.70
46458;DHT22;32155;54.076;12.092;2023-06-10T08:57:45;33.60;98.80
46458;DHT22;32155;54.076;12.092;2023-06-10T09:00:11;33.10;96.50
46458;DHT22;32155;54.076;12.092;2023-06-10T09:02:37;30.50;97.90
46458;DHT22;32155;54.076;12.092;2023-06-10T09:05:03;30.50;99.50
46458;DHT22;32155;54.076;12.092;2023-06-10T09:07:30;31.50;98.00
46458;DHT22;32155;54.076;12.092;2023-06-10T09:09:56;32.00;97.20
46458;DHT22;32155;54.076;12.092;2023-06-10T09:12:23;32.00;97.00
46458;DHT22;32155;54.076;12.092;2023-06-10T09:14:48;31.00;98.50
46458;DHT22;32155;54.076;12.092;2023-06-10T09:17:13;32.30;96.50
46458;DHT22;32155;54.076;12.092;2023-06-10T09:19:39;33.20;95.50
46458;DHT22;32155;54.076;12.092;2023-06-10T09:22:05;33.60;94.30
46458;DHT22;32155;54.076;12.092;2023-06-10T09:24:33;33.20;94.50
46458;DHT22;32155;54.076;12.092;2023-06-10T09:27:03;34.00;94.30
46458;DHT22;32155;54.076;12.092;2023-06-10T09:29:29;34.70;92.90
46458;DHT22;32155;54.076;12.092;2023-06-10T09:31:54;33.80;92.50
46458;DHT22;32155;54.076;12.092;2023-06-10T09:34:20;32.10;93.10
46458;DHT22;32155;54.076;12.092;2023-06-10T09:36:50;31.80;94.20
46458;DHT22;32155;54.076;12.092;2023-06-10T09:39:18;34.20;92.80
46458;DHT22;32155;54.076;12.092;2023-06-10T09:41:44;35.30;91.00
46458;DHT22;32155;54.076;12.092;2023-06-10T09:46:40;33.30;92.80
46458;DHT22;32155;54.076;12.092;2023-06-10T09:49:05;33.20;91.30
46458;DHT22;32155;54.076;12.092;2023-06-10T09:51:31;34.40;91.60
46458;DHT22;32155;54.076;12.092;2023-06-10T09:53:57;35.10;90.00
46458;DHT22;32155;54.076;12.092;2023-06-10T09:56:33;36.00;87.60
46458;DHT22;32155;54.076;12.092;2023-06-10T09:59:00;37.40;82.90
46458;DHT22;32155;54.076;12.092;2023-06-10T10:01:25;37.00;79.70
46458;DHT22;32155;54.076;12.092;2023-06-10T10:03:51;37.40;79.40
46458;DHT22;32155;54.076;12.092;2023-06-10T10:06:17;38.50;76.90
46458;DHT22;32155;54.076;12.092;2023-06-10T10:08:43;39.00;74.30
46458;DHT22;32155;54.076;12.092;2023-06-10T10:11:09;38.20;72.80
46458;DHT22;32155;54.076;12.092;2023-06-10T10:13:35;37.00;74.10
46458;DHT22;32155;54.076;12.092;2023-06-10T10:16:06;37.90;74.60
46458;DHT22;32155;54.076;12.092;2023-06-10T10:18:35;37.70;72.00
46458;DHT22;32155;54.076;12.092;2023-06-10T10:21:11;36.90;73.80
46458;DHT22;32155;54.076;12.092;2023-06-10T10:23:44;37.20;73.30
46458;DHT22;32155;54.076;12.092;2023-06-10T10:26:14;37.40;71.20
46458;DHT22;32155;54.076;12.092;2023-06-10T10:28:49;37.30;71.40
46458;DHT22;32155;54.076;12.092;2023-06-10T10:31:18;37.20;70.20
46458;DHT22;32155;54.076;12.092;2023-06-10T10:33:58;36.30;70.60
46458;DHT22;32155;54.076;12.092;2023-06-10T10:36:23;37.10;71.10
46458;DHT22;32155;54.076;12.092;2023-06-10T10:38:49;38.70;69.00
46458;DHT22;32155;54.076;12.092;2023-06-10T10:41:15;38.40;67.10
46458;DHT22;32155;54.076;12.092;2023-06-10T10:43:42;38.60;66.20
46458;DHT22;32155;54.076;12.092;2023-06-10T10:46:13;38.60;65.90
46458;DHT22;32155;54.076;12.092;2023-06-10T10:48:39;38.80;65.60
46458;DHT22;32155;54.076;12.092;2023-06-10T10:51:06;38.80;65.00
46458;DHT22;32155;54.076;12.092;2023-06-10T10:53:32;38.10;63.50
46458;DHT22;32155;54.076;12.092;2023-06-10T10:56:04;39.10;64.50
46458;DHT22;32155;54.076;12.092;2023-06-10T10:58:32;39.40;63.10
46458;DHT22;32155;54.076;12.092;2023-06-10T11:00:57;39.30;61.00
46458;DHT22;32155;54.076;12.092;2023-06-10T11:03:29;38.80;62.30
46458;DHT22;32155;54.076;12.092;2023-06-10T11:05:57;38.20;62.10
46458;DHT22;32155;54.076;12.092;2023-06-10T11:10:58;38.50;62.30
46458;DHT22;32155;54.076;12.092;2023-06-10T11:13:23;38.70;61.40
46458;DHT22;32155;54.076;12.092;2023-06-10T11:15:50;37.20;62.90
46458;DHT22;32155;54.076;12.092;2023-06-10T11:18:28;37.70;62.00
46458;DHT22;32155;54.076;12.092;2023-06-10T11:20:55;38.50;60.50
46458;DHT22;32155;54.076;12.092;2023-06-10T11:28:41;38.70;59.20
46458;DHT22;32155;54.076;12.092;2023-06-10T11:31:08;37.60;61.90
46458;DHT22;32155;54.076;12.092;2023-06-10T11:33:33;38.80;60.30
46458;DHT22;32155;54.076;12.092;2023-06-10T11:36:06;38.30;60.70
46458;DHT22;32155;54.076;12.092;2023-06-10T11:38:31;37.50;61.50
46458;DHT22;32155;54.076;12.092;2023-06-10T11:40:57;37.10;61.90
46458;DHT22;32155;54.076;12.092;2023-06-10T11:43:22;37.50;62.20
46458;DHT22;32155;54.076;12.092;2023-06-10T11:45:53;37.40;62.00
46458;DHT22;32155;54.076;12.092;2023-06-10T11:48:19;37.00;61.70
46458;DHT22;32155;54.076;12.092;2023-06-10T11:50:44;36.20;64.00
46458;DHT22;32155;54.076;12.092;2023-06-10T11:53:10;35.70;64.40
46458;DHT22;32155;54.076;12.092;2023-06-10T11:58:17;33.80;66.50
46458;DHT22;32155;54.076;12.092;2023-06-10T12:00:46;33.60;68.40
46458;DHT22;32155;54.076;12.092;2023-06-10T12:03:12;34.60;67.60
46458;DHT22;32155;54.076;12.092;2023-06-10T12:05:38;33.90;66.80
46458;DHT22;32155;54.076;12.092;2023-06-10T12:08:10;32.60;69.60
46458;DHT22;32155;54.076;12.092;2023-06-10T12:10:42;30.90;74.20
46458;DHT22;32155;54.076;12.092;2023-06-10T12:13:08;30.40;73.80
46458;DHT22;32155;54.076;12.092;2023-06-10T12:15:34;31.10;73.60
46458;DHT22;32155;54.076;12.092;2023-06-10T12:18:02;29.80;74.80
46458;DHT22;32155;54.076;12.092;2023-06-10T12:20:28;29.00;78.40
46458;DHT22;32155;54.076;12.092;2023-06-10T12:23:01;28.50;79.60
46458;DHT22;32155;54.076;12.092;2023-06-10T12:25:33;28.70;79.70
46458;DHT22;32155;54.076;12.092;2023-06-10T12:27:59;28.60;79.90
46458;DHT22;32155;54.076;12.092;2023-06-10T12:30:25;28.80;80.40
46458;DHT22;32155;54.076;12.092;2023-06-10T12:32:52;28.50;81.40
46458;DHT22;32155;54.076;12.092;2023-06-10T12:35:19;28.00;82.40
46458;DHT22;32155;54.076;12.092;2023-06-10T12:37:55;28.10;82.70
46458;DHT22;32155;54.076;12.092;2023-06-10T12:42:54;27.20;84.60
46458;DHT22;32155;54.076;12.092;2023-06-10T12:45:29;26.80;85.90
46458;DHT22;32155;54.076;12.092;2023-06-10T12:50:37;27.30;85.60
46458;DHT22;32155;54.076;12.092;2023-06-10T12:53:04;27.10;87.60
46458;DHT22;32155;54.076;12.092;2023-06-10T12:55:29;27.30;87.20
46458;DHT22;32155;54.076;12.092;2023-06-10T12:57:58;27.40;87.10
46458;DHT22;32155;54.076;12.092;2023-06-10T13:00:23;27.60;88.00
46458;DHT22;32155;54.076;12.092;2023-06-10T13:02:54;27.70;88.30
46458;DHT22;32155;54.076;12.092;2023-06-10T13:05:19;27.90;86.70
46458;DHT22;32155;54.076;12.092;2023-06-10T13:07:45;27.70;87.10
46458;DHT22;32155;54.076;12.092;2023-06-10T13:10:12;28.00;87.40
46458;DHT22;32155;54.076;12.092;2023-06-10T13:12:38;28.20;85.40
46458;DHT22;32155;54.076;12.092;2023-06-10T13:15:04;27.80;83.80
46458;DHT22;32155;54.076;12.092;2023-06-10T13:17:30;27.90;85.00
46458;DHT22;32155;54.076;12.092;2023-06-10T13:19:55;28.00;85.10
46458;DHT22;32155;54.076;12.092;2023-06-10T13:22:21;27.90;86.20
46458;DHT22;32155;54.076;12.092;2023-06-10T13:24:46;27.70;87.10
46458;DHT22;32155;54.076;12.092;2023-06-10T13:27:14;27.60;86.70
46458;DHT22;32155;54.076;12.092;2023-06-10T13:29:40;27.60;82.80
46458;DHT22;32155;54.076;12.092;2023-06-10T13:32:06;27.40;81.90
46458;DHT22;32155;54.076;12.092;2023-06-10T13:34:31;27.20;81.40
46458;DHT22;32155;54.076;12.092;2023-06-10T13:36:57;27.20;81.40
46458;DHT22;32155;54.076;12.092;2023-06-10T13:39:23;26.70;82.50
46458;DHT22;32155;54.076;12.092;2023-06-10T13:41:48;26.30;83.80
46458;DHT22;32155;54.076;12.092;2023-06-10T13:44:16;26.10;84.70
46458;DHT22;32155;54.076;12.092;2023-06-10T13:46:42;25.90;85.50
46458;DHT22;32155;54.076;12.092;2023-06-10T13:49:07;26.50;83.90
46458;DHT22;32155;54.076;12.092;2023-06-10T13:51:33;26.50;82.70
46458;DHT22;32155;54.076;12.092;2023-06-10T13:53:59;26.50;84.20
46458;DHT22;32155;54.076;12.092;2023-06-10T13:56:25;26.70;83.80
46458;DHT22;32155;54.076;12.092;2023-06-10T13:58:50;26.40;83.80
46458;DHT22;32155;54.076;12.092;2023-06-10T14:01:18;26.30;83.60
46458;DHT22;32155;54.076;12.092;2023-06-10T14:03:50;26.30;84.20
46458;DHT22;32155;54.076;12.092;2023-06-10T14:06:15;26.30;83.60
46458;DHT22;32155;54.076;12.092;2023-06-10T14:08:44;26.30;82.80
46458;DHT22;32155;54.076;12.092;2023-06-10T14:11:09;26.40;82.70
46458;DHT22;32155;54.076;12.092;2023-06-10T14:13:38;26.10;82.80
46458;DHT22;32155;54.076;12.092;2023-06-10T14:16:04;25.90;82.30
46458;DHT22;32155;54.076;12.092;2023-06-10T14:18:30;25.50;82.80
46458;DHT22;32155;54.076;12.092;2023-06-10T14:20:55;25.60;83.60
46458;DHT22;32155;54.076;12.092;2023-06-10T14:23:21;25.70;84.70
46458;DHT22;32155;54.076;12.092;2023-06-10T14:25:46;25.70;83.70
46458;DHT22;32155;54.076;12.092;2023-06-10T14:28:12;25.50;84.70
46458;DHT22;32155;54.076;12.092;2023-06-10T14:30:37;25.70;85.30
46458;DHT22;32155;54.076;12.092;2023-06-10T14:33:03;25.80;85.90
46458;DHT22;32155;54.076;12.092;2023-06-10T14:35:28;25.60;85.00
46458;DHT22;32155;54.076;12.092;2023-06-10T14:37:54;25.50;86.20
46458;DHT22;32155;54.076;12.092;2023-06-10T14:40:20;25.40;87.10
46458;DHT22;32155;54.076;12.092;2023-06-10T14:42:52;25.40;88.00
46458;DHT22;32155;54.076;12.092;2023-06-10T14:45:18;25.50;88.90
46458;DHT22;32155;54.076;12.092;2023-06-10T14:47:43;25.70;88.20
46458;DHT22;32155;54.076;12.092;2023-06-10T14:50:11;25.90;87.90
46458;DHT22;32155;54.076;12.092;2023-06-10T14:52:37;26.10;88.10
46458;DHT22;32155;54.076;12.092;2023-06-10T14:55:02;26.00;87.40
46458;DHT22;32155;54.076;12.092;2023-06-10T14:57:28;25.90;88.00
46458;DHT22;32155;54.076;12.092;2023-06-10T14:59:53;25.70;88.00
46458;DHT22;32155;54.076;12.092;2023-06-10T15:02:21;25.50;88.20
46458;DHT22;32155;54.076;12.092;2023-06-10T15:04:47;25.60;88.00
46458;DHT22;32155;54.076;12.092;2023-06-10T15:07:13;25.50;87.10
46458;DHT22;32155;54.076;12.092;2023-06-10T15:09:41;25.40;86.40
46458;DHT22;32155;54.076;12.092;2023-06-10T15:12:06;25.30;86.60
46458;DHT22;32155;54.076;12.092;2023-06-10T15:14:32;25.10;87.20
46458;DHT22;32155;54.076;12.092;2023-06-10T15:16:57;24.90;89.10
46458;DHT22;32155;54.076;12.092;2023-06-10T15:19:24;24.90;89.40
46458;DHT22;32155;54.076;12.092;2023-06-10T15:21:50;24.80;89.70
46458;DHT22;32155;54.076;12.092;2023-06-10T15:24:16;24.70;87.60
46458;DHT22;32155;54.076;12.092;2023-06-10T15:26:41;24.50;87.60
46458;DHT22;32155;54.076;12.092;2023-06-10T15:29:09;24.50;88.30
46458;DHT22;32155;54.076;12.092;2023-06-10T15:31:34;24.50;89.50
46458;DHT22;32155;54.076;12.092;2023-06-10T15:34:00;24.70;89.10
46458;DHT22;32155;54.076;12.092;2023-06-10T15:36:26;24.80;89.70
46458;DHT22;32155;54.076;12.092;2023-06-10T15:38:56;24.80;88.90